createdAt,value
2023-05-19T00:00:11.980Z,5.35
2023-05-19T00:02:41.092Z,5.25
2023-05-19T00:05:11.767Z,5.28
2023-05-19T00:07:41.547Z,5.50
2023-05-19T00:10:10.709Z,5.10
2023-05-19T00:12:40.347Z,4.93
2023-05-19T00:15:09.844Z,5.82
2023-05-19T00:17:39.791Z,5.05
2023-05-19T00:20:09.747Z,4.68
2023-05-19T00:22:38.447Z,5.72
2023-05-19T00:25:07.710Z,5.40
2023-05-19T00:27:36.372Z,5.60
2023-05-19T00:30:04.644Z,5.07
2023-05-19T00:32:32.956Z,5.22
2023-05-19T00:35:01.172Z,6.10
2023-05-19T00:37:29.735Z,5.30
2023-05-19T00:39:58.671Z,5.45
2023-05-19T00:42:27.303Z,5.43
2023-05-19T00:44:55.907Z,4.90
2023-05-19T00:47:23.958Z,5.07
2023-05-19T00:49:52.097Z,5.28
2023-05-19T00:52:20.740Z,5.30
2023-05-19T00:54:50.739Z,5.07
2023-05-19T00:57:19.848Z,5.07
2023-05-19T00:59:50.106Z,5.72
2023-05-19T01:02:19.432Z,5.38
2023-05-19T01:04:48.474Z,4.50
2023-05-19T01:07:17.414Z,4.55
2023-05-19T01:09:48.705Z,5.07
2023-05-19T01:12:17.339Z,4.85
2023-05-19T01:14:46.336Z,5.45
2023-05-19T01:17:15.411Z,5.03
2023-05-19T01:19:48.193Z,5.00
2023-05-19T01:22:25.425Z,5.13
2023-05-19T01:25:14.540Z,5.15
2023-05-19T01:28:07.669Z,5.22
2023-05-19T17:00:30.554Z,83.50
2023-05-19T17:06:51.263Z,69.53
2023-05-19T17:09:26.264Z,71.57
2023-05-19T17:11:55.509Z,73.25
2023-05-19T17:14:24.240Z,72.75
2023-05-19T17:16:53.716Z,72.38
2023-05-19T17:19:22.418Z,73.07
2023-05-19T17:21:51.159Z,77.85
2023-05-19T17:24:19.700Z,79.78
2023-05-19T17:26:48.240Z,79.82
2023-05-19T17:29:16.623Z,87.70
2023-05-19T17:31:45.326Z,89.68
2023-05-19T17:34:13.956Z,89.20
2023-05-19T17:36:42.409Z,91.55
2023-05-19T17:39:10.937Z,89.93
2023-05-19T17:41:39.720Z,96.53
2023-05-19T17:44:08.596Z,101.88
2023-05-19T17:46:37.488Z,106.07
2023-05-19T17:49:06.311Z,100.57
2023-05-19T17:51:35.242Z,96.03
2023-05-19T17:54:04.075Z,89.05
2023-05-19T17:56:35.512Z,98.32
2023-05-19T17:59:04.411Z,92.33
2023-05-19T18:01:33.645Z,90.93
2023-05-19T18:04:02.807Z,89.88
2023-05-19T18:06:33.181Z,93.10
2023-05-19T18:09:04.963Z,87.45
2023-05-19T18:11:33.615Z,80.05
2023-05-19T18:14:02.211Z,76.20
2023-05-19T18:16:30.900Z,77.35
2023-05-19T18:18:59.607Z,77.20
2023-05-19T18:21:28.197Z,79.35
2023-05-19T18:23:56.795Z,78.82
2023-05-19T18:26:25.177Z,65.43
2023-05-19T18:28:53.716Z,66.13
2023-05-19T18:31:22.334Z,64.55
2023-05-19T18:33:51.141Z,64.30
2023-05-19T18:36:20.459Z,64.55
2023-05-19T18:38:49.244Z,66.25
2023-05-19T18:41:17.821Z,63.53
2023-05-19T18:43:46.400Z,65.72
2023-05-19T18:46:14.957Z,60.13
2023-05-19T18:48:43.605Z,61.05
2023-05-19T18:51:12.192Z,56.58
2023-05-19T18:53:40.699Z,60.63
2023-05-19T18:56:09.551Z,59.28
2023-05-19T18:58:38.123Z,58.08
2023-05-19T19:01:06.748Z,58.03
2023-05-19T19:03:35.517Z,58.58
2023-05-19T19:06:04.087Z,60.85
2023-05-19T19:08:32.939Z,52.95
2023-05-19T19:11:02.284Z,55.58
2023-05-19T19:13:30.846Z,51.42
2023-05-19T19:15:59.454Z,65.07
2023-05-19T19:18:28.238Z,56.40
2023-05-19T19:21:00.991Z,54.33
2023-05-19T19:23:29.664Z,57.22
2023-05-19T19:25:57.693Z,54.25
2023-05-19T19:28:26.418Z,54.50
2023-05-19T19:30:55.028Z,53.35
2023-05-19T19:33:23.707Z,57.10
2023-05-19T19:35:52.290Z,56.10
2023-05-19T19:38:20.889Z,56.22
2023-05-19T19:40:49.582Z,59.05
2023-05-19T19:43:18.179Z,59.72
2023-05-19T19:45:46.397Z,60.05
2023-05-19T19:48:14.932Z,58.38
2023-05-19T19:50:43.570Z,59.15
2023-05-19T19:53:12.180Z,58.17
2023-05-19T19:55:41.263Z,58.83
2023-05-19T19:58:09.819Z,53.58
2023-05-19T20:00:38.409Z,52.45
2023-05-19T20:03:07.024Z,51.10
2023-05-19T20:05:35.982Z,52.05
2023-05-19T20:08:04.980Z,49.20
2023-05-19T20:10:33.778Z,45.30
2023-05-19T20:13:02.566Z,44.70
2023-05-19T20:15:31.192Z,45.95
2023-05-19T20:17:59.809Z,44.97
2023-05-19T20:20:28.231Z,46.65
2023-05-19T20:22:56.780Z,42.60
2023-05-19T20:25:25.504Z,44.28
2023-05-19T20:27:54.111Z,43.60
2023-05-19T20:30:22.715Z,43.13
2023-05-19T20:32:51.453Z,42.20
2023-05-19T20:35:20.202Z,42.45
2023-05-19T20:37:49.391Z,41.42
2023-05-19T20:40:18.023Z,43.53
2023-05-19T20:42:47.512Z,45.03
2023-05-19T20:45:16.139Z,45.25
2023-05-19T20:47:44.987Z,47.45
2023-05-19T20:50:13.670Z,48.33
2023-05-19T20:52:42.615Z,46.17
2023-05-19T20:55:11.287Z,48.75
2023-05-19T20:57:39.943Z,47.20
2023-05-19T21:00:09.079Z,45.63
2023-05-19T21:02:48.031Z,46.70
2023-05-19T21:05:30.216Z,44.85
2023-05-19T21:08:13.943Z,44.33
2023-05-19T21:13:30.812Z,44.30
2023-05-19T21:16:11.598Z,45.75
2023-05-19T21:18:41.083Z,44.90
2023-05-19T21:21:09.533Z,42.40
2023-05-19T21:23:38.018Z,42.10
2023-05-19T21:26:07.747Z,43.13
2023-05-19T21:28:36.387Z,42.95
2023-05-19T21:31:06.577Z,43.20
2023-05-19T21:33:35.295Z,42.92
2023-05-19T21:36:03.846Z,44.72
2023-05-19T21:38:32.005Z,44.05
2023-05-19T21:41:00.761Z,42.78
2023-05-19T21:43:29.316Z,45.42
2023-05-19T21:45:57.661Z,43.17
2023-05-19T21:48:26.430Z,41.97
2023-05-19T21:50:56.238Z,44.45
2023-05-19T21:53:24.938Z,44.22
2023-05-19T21:55:53.787Z,44.08
2023-05-19T21:58:22.382Z,42.10
2023-05-19T22:00:52.282Z,40.90
2023-05-19T22:03:20.593Z,40.88
2023-05-19T22:05:56.816Z,40.80
2023-05-19T22:08:25.898Z,40.35
2023-05-19T22:10:54.575Z,39.55
2023-05-19T22:13:23.202Z,40.35
2023-05-19T22:15:52.107Z,41.75
2023-05-19T22:18:20.656Z,40.15
2023-05-19T22:20:49.152Z,40.92
2023-05-19T22:23:17.771Z,39.47
2023-05-19T22:25:46.424Z,40.72
2023-05-19T22:28:14.892Z,39.85
2023-05-19T22:30:43.420Z,38.20
2023-05-19T22:33:14.273Z,40.20
2023-05-19T22:35:43.859Z,39.15
2023-05-19T22:38:13.073Z,40.38
2023-05-19T22:40:41.761Z,41.42
2023-05-19T22:43:10.407Z,38.97
2023-05-19T22:45:39.182Z,38.88
2023-05-19T22:48:07.929Z,38.05
2023-05-19T22:50:36.733Z,40.13
2023-05-19T22:53:05.248Z,39.97
2023-05-19T22:55:33.965Z,40.85
2023-05-19T22:58:02.762Z,40.60
2023-05-19T23:00:31.343Z,41.53
2023-05-19T23:03:00.434Z,42.50
2023-05-19T23:05:29.053Z,43.42
2023-05-19T23:07:57.924Z,41.70
2023-05-19T23:10:26.275Z,45.10
2023-05-19T23:12:54.906Z,43.92
2023-05-19T23:15:23.422Z,45.95
2023-05-19T23:17:52.096Z,45.95
2023-05-19T23:20:20.818Z,46.63
2023-05-19T23:22:49.414Z,46.67
2023-05-19T23:25:18.005Z,46.90
2023-05-19T23:27:47.861Z,46.35
2023-05-19T23:30:16.421Z,46.17
2023-05-19T23:32:44.902Z,49.17
2023-05-19T23:35:15.086Z,49.78
2023-05-19T23:37:43.797Z,50.47
2023-05-19T23:40:12.924Z,52.58
2023-05-19T23:42:41.536Z,53.58
2023-05-19T23:45:10.522Z,56.25
2023-05-19T23:47:39.378Z,58.03
2023-05-19T23:50:08.558Z,67.38
2023-05-19T23:52:37.221Z,73.18
2023-05-19T23:55:07.172Z,83.00
2023-05-19T23:57:35.798Z,90.78
